sensor_id;sensor_type;location;lat;lon;timestamp;P1;durP1;ratioP1;P2;durP2;ratioP2
78336;SDS011;67610;51.588;7.002;2023-04-25T00:01:39;9.70;;;3.70;;
78336;SDS011;67610;51.588;7.002;2023-04-25T00:04:05;10.18;;;3.95;;
78336;SDS011;67610;51.588;7.002;2023-04-25T00:06:31;9.10;;;3.53;;
78336;SDS011;67610;51.588;7.002;2023-04-25T00:08:57;11.82;;;3.50;;
78336;SDS011;67610;51.588;7.002;2023-04-25T00:11:23;7.18;;;3.30;;
78336;SDS011;67610;51.588;7.002;2023-04-25T00:13:49;7.22;;;3.03;;
78336;SDS011;67610;51.588;7.002;2023-04-25T00:16:15;6.93;;;3.00;;
78336;SDS011;67610;51.588;7.002;2023-04-25T00:18:41;9.90;;;3.40;;
78336;SDS011;67610;51.588;7.002;2023-04-25T00:21:07;7.72;;;3.33;;
78336;SDS011;67610;51.588;7.002;2023-04-25T00:23:33;9.00;;;3.20;;
78336;SDS011;67610;51.588;7.002;2023-04-25T00:26:01;8.65;;;3.38;;
78336;SDS011;67610;51.588;7.002;2023-04-25T00:28:27;10.63;;;3.67;;
78336;SDS011;67610;51.588;7.002;2023-04-25T00:30:52;7.55;;;3.00;;
78336;SDS011;67610;51.588;7.002;2023-04-25T00:33:18;8.55;;;3.17;;
78336;SDS011;67610;51.588;7.002;2023-04-25T00:35:43;10.55;;;3.30;;
78336;SDS011;67610;51.588;7.002;2023-04-25T00:38:08;8.57;;;3.42;;
78336;SDS011;67610;51.588;7.002;2023-04-25T00:40:34;7.28;;;2.97;;
78336;SDS011;67610;51.588;7.002;2023-04-25T00:43:00;7.10;;;2.83;;
78336;SDS011;67610;51.588;7.002;2023-04-25T00:45:27;7.07;;;3.10;;
78336;SDS011;67610;51.588;7.002;2023-04-25T00:47:54;7.28;;;2.92;;
78336;SDS011;67610;51.588;7.002;2023-04-25T00:50:19;6.90;;;3.30;;
78336;SDS011;67610;51.588;7.002;2023-04-25T00:52:44;8.43;;;2.90;;
78336;SDS011;67610;51.588;7.002;2023-04-25T00:55:10;9.85;;;3.33;;
78336;SDS011;67610;51.588;7.002;2023-04-25T00:57:37;7.82;;;2.92;;
78336;SDS011;67610;51.588;7.002;2023-04-25T01:00:04;6.22;;;3.28;;
78336;SDS011;67610;51.588;7.002;2023-04-25T01:02:31;7.90;;;3.10;;
78336;SDS011;67610;51.588;7.002;2023-04-25T01:05:00;7.38;;;3.15;;
78336;SDS011;67610;51.588;7.002;2023-04-25T01:07:27;8.10;;;2.90;;
78336;SDS011;67610;51.588;7.002;2023-04-25T01:09:55;5.78;;;3.15;;
78336;SDS011;67610;51.588;7.002;2023-04-25T01:12:21;7.78;;;3.00;;
78336;SDS011;67610;51.588;7.002;2023-04-25T01:14:46;8.30;;;3.33;;
78336;SDS011;67610;51.588;7.002;2023-04-25T01:17:12;9.15;;;3.08;;
78336;SDS011;67610;51.588;7.002;2023-04-25T01:19:38;6.65;;;2.63;;
78336;SDS011;67610;51.588;7.002;2023-04-25T01:22:04;7.57;;;3.17;;
78336;SDS011;67610;51.588;7.002;2023-04-25T01:24:31;8.23;;;3.33;;
78336;SDS011;67610;51.588;7.002;2023-04-25T01:26:58;6.55;;;2.97;;
78336;SDS011;67610;51.588;7.002;2023-04-25T01:29:27;6.30;;;3.20;;
78336;SDS011;67610;51.588;7.002;2023-04-25T01:31:53;9.55;;;3.33;;
78336;SDS011;67610;51.588;7.002;2023-04-25T01:34:20;8.85;;;3.40;;
78336;SDS011;67610;51.588;7.002;2023-04-25T01:36:47;7.47;;;3.13;;
78336;SDS011;67610;51.588;7.002;2023-04-25T01:39:15;6.32;;;3.30;;
78336;SDS011;67610;51.588;7.002;2023-04-25T01:41:40;10.02;;;3.95;;
78336;SDS011;67610;51.588;7.002;2023-04-25T01:44:06;9.63;;;3.97;;
78336;SDS011;67610;51.588;7.002;2023-04-25T01:46:32;6.47;;;3.20;;
78336;SDS011;67610;51.588;7.002;2023-04-25T01:48:58;10.38;;;3.50;;
78336;SDS011;67610;51.588;7.002;2023-04-25T01:51:23;6.22;;;3.28;;
78336;SDS011;67610;51.588;7.002;2023-04-25T01:53:49;8.25;;;3.35;;
78336;SDS011;67610;51.588;7.002;2023-04-25T01:56:14;8.68;;;3.50;;
78336;SDS011;67610;51.588;7.002;2023-04-25T01:58:40;7.95;;;4.15;;
78336;SDS011;67610;51.588;7.002;2023-04-25T02:01:05;8.82;;;4.40;;
78336;SDS011;67610;51.588;7.002;2023-04-25T02:03:31;9.45;;;4.97;;
78336;SDS011;67610;51.588;7.002;2023-04-25T02:05:56;11.70;;;5.93;;
78336;SDS011;67610;51.588;7.002;2023-04-25T02:08:22;11.18;;;5.35;;
78336;SDS011;67610;51.588;7.002;2023-04-25T02:10:47;10.52;;;5.20;;
78336;SDS011;67610;51.588;7.002;2023-04-25T02:13:12;13.27;;;6.60;;
78336;SDS011;67610;51.588;7.002;2023-04-25T02:15:38;12.57;;;6.38;;
78336;SDS011;67610;51.588;7.002;2023-04-25T02:18:03;9.93;;;5.18;;
78336;SDS011;67610;51.588;7.002;2023-04-25T02:20:29;9.73;;;5.00;;
78336;SDS011;67610;51.588;7.002;2023-04-25T02:22:55;10.05;;;4.45;;
78336;SDS011;67610;51.588;7.002;2023-04-25T02:25:21;8.73;;;4.43;;
78336;SDS011;67610;51.588;7.002;2023-04-25T02:27:47;6.75;;;3.65;;
78336;SDS011;67610;51.588;7.002;2023-04-25T02:30:13;7.40;;;3.45;;
78336;SDS011;67610;51.588;7.002;2023-04-25T02:32:39;9.23;;;3.47;;
78336;SDS011;67610;51.588;7.002;2023-04-25T02:35:05;7.30;;;3.78;;
78336;SDS011;67610;51.588;7.002;2023-04-25T02:37:32;6.65;;;3.40;;
78336;SDS011;67610;51.588;7.002;2023-04-25T02:39:58;6.93;;;3.08;;
78336;SDS011;67610;51.588;7.002;2023-04-25T02:42:23;7.90;;;3.42;;
78336;SDS011;67610;51.588;7.002;2023-04-25T02:44:49;11.00;;;4.28;;
78336;SDS011;67610;51.588;7.002;2023-04-25T02:47:14;8.05;;;3.67;;
78336;SDS011;67610;51.588;7.002;2023-04-25T02:49:39;8.13;;;3.30;;
78336;SDS011;67610;51.588;7.002;2023-04-25T02:52:05;8.48;;;3.78;;
78336;SDS011;67610;51.588;7.002;2023-04-25T02:54:31;9.25;;;4.05;;
78336;SDS011;67610;51.588;7.002;2023-04-25T02:56:56;7.05;;;3.17;;
78336;SDS011;67610;51.588;7.002;2023-04-25T02:59:22;10.23;;;4.25;;
78336;SDS011;67610;51.588;7.002;2023-04-25T03:01:47;13.07;;;5.95;;
78336;SDS011;67610;51.588;7.002;2023-04-25T03:04:12;13.32;;;5.95;;
78336;SDS011;67610;51.588;7.002;2023-04-25T03:06:38;15.27;;;6.82;;
78336;SDS011;67610;51.588;7.002;2023-04-25T03:09:03;28.27;;;12.00;;
78336;SDS011;67610;51.588;7.002;2023-04-25T03:11:29;33.38;;;16.00;;
78336;SDS011;67610;51.588;7.002;2023-04-25T03:13:55;40.47;;;16.77;;
78336;SDS011;67610;51.588;7.002;2023-04-25T03:16:21;30.52;;;14.07;;
78336;SDS011;67610;51.588;7.002;2023-04-25T03:18:47;33.28;;;16.27;;
78336;SDS011;67610;51.588;7.002;2023-04-25T03:21:12;29.88;;;13.15;;
78336;SDS011;67610;51.588;7.002;2023-04-25T03:23:37;28.30;;;13.25;;
78336;SDS011;67610;51.588;7.002;2023-04-25T03:26:03;31.30;;;13.70;;
78336;SDS011;67610;51.588;7.002;2023-04-25T03:28:29;25.92;;;10.40;;
78336;SDS011;67610;51.588;7.002;2023-04-25T03:30:54;17.95;;;8.73;;
78336;SDS011;67610;51.588;7.002;2023-04-25T03:33:19;21.00;;;7.18;;
78336;SDS011;67610;51.588;7.002;2023-04-25T03:35:45;10.90;;;4.63;;
78336;SDS011;67610;51.588;7.002;2023-04-25T03:38:11;8.45;;;2.95;;
78336;SDS011;67610;51.588;7.002;2023-04-25T03:40:36;5.30;;;2.67;;
78336;SDS011;67610;51.588;7.002;2023-04-25T03:43:02;8.07;;;2.45;;
78336;SDS011;67610;51.588;7.002;2023-04-25T03:45:27;5.82;;;2.10;;
78336;SDS011;67610;51.588;7.002;2023-04-25T03:47:52;5.40;;;2.03;;
78336;SDS011;67610;51.588;7.002;2023-04-25T03:50:18;7.47;;;2.65;;
78336;SDS011;67610;51.588;7.002;2023-04-25T03:52:43;5.22;;;2.40;;
78336;SDS011;67610;51.588;7.002;2023-04-25T03:55:09;6.13;;;2.17;;
78336;SDS011;67610;51.588;7.002;2023-04-25T03:57:35;6.90;;;2.30;;
78336;SDS011;67610;51.588;7.002;2023-04-25T04:00:00;5.88;;;2.50;;
78336;SDS011;67610;51.588;7.002;2023-04-25T04:02:26;7.13;;;2.30;;
78336;SDS011;67610;51.588;7.002;2023-04-25T04:04:51;5.50;;;2.53;;
78336;SDS011;67610;51.588;7.002;2023-04-25T04:07:17;3.67;;;2.20;;
78336;SDS011;67610;51.588;7.002;2023-04-25T04:09:42;7.68;;;2.53;;
78336;SDS011;67610;51.588;7.002;2023-04-25T04:12:07;5.05;;;2.05;;
78336;SDS011;67610;51.588;7.002;2023-04-25T04:14:33;4.25;;;1.88;;
78336;SDS011;67610;51.588;7.002;2023-04-25T04:16:58;5.03;;;2.40;;
78336;SDS011;67610;51.588;7.002;2023-04-25T04:19:24;5.57;;;2.20;;
78336;SDS011;67610;51.588;7.002;2023-04-25T04:21:49;6.88;;;2.00;;
78336;SDS011;67610;51.588;7.002;2023-04-25T04:24:14;4.38;;;2.10;;
78336;SDS011;67610;51.588;7.002;2023-04-25T04:26:41;5.90;;;1.95;;
78336;SDS011;67610;51.588;7.002;2023-04-25T04:29:10;5.95;;;2.10;;
78336;SDS011;67610;51.588;7.002;2023-04-25T04:31:37;4.97;;;2.20;;
78336;SDS011;67610;51.588;7.002;2023-04-25T04:34:02;4.25;;;2.28;;
78336;SDS011;67610;51.588;7.002;2023-04-25T04:36:28;5.95;;;2.20;;
78336;SDS011;67610;51.588;7.002;2023-04-25T04:38:54;6.38;;;2.70;;
78336;SDS011;67610;51.588;7.002;2023-04-25T04:41:21;7.20;;;2.28;;
78336;SDS011;67610;51.588;7.002;2023-04-25T04:43:47;6.28;;;2.40;;
78336;SDS011;67610;51.588;7.002;2023-04-25T04:46:13;6.97;;;2.80;;
78336;SDS011;67610;51.588;7.002;2023-04-25T04:48:38;6.53;;;3.17;;
78336;SDS011;67610;51.588;7.002;2023-04-25T04:51:05;8.95;;;3.95;;
78336;SDS011;67610;51.588;7.002;2023-04-25T04:53:31;9.57;;;4.18;;
78336;SDS011;67610;51.588;7.002;2023-04-25T04:55:56;11.20;;;4.47;;
78336;SDS011;67610;51.588;7.002;2023-04-25T04:58:22;7.50;;;4.03;;
78336;SDS011;67610;51.588;7.002;2023-04-25T05:00:49;8.63;;;4.40;;
78336;SDS011;67610;51.588;7.002;2023-04-25T05:03:14;9.35;;;4.50;;
78336;SDS011;67610;51.588;7.002;2023-04-25T05:05:40;9.48;;;4.20;;
78336;SDS011;67610;51.588;7.002;2023-04-25T05:08:07;16.25;;;4.57;;
78336;SDS011;67610;51.588;7.002;2023-04-25T05:10:32;9.98;;;3.75;;
78336;SDS011;67610;51.588;7.002;2023-04-25T05:12:58;8.40;;;4.30;;
78336;SDS011;67610;51.588;7.002;2023-04-25T05:15:24;10.30;;;4.55;;
78336;SDS011;67610;51.588;7.002;2023-04-25T05:17:50;9.13;;;3.83;;
78336;SDS011;67610;51.588;7.002;2023-04-25T05:20:15;10.23;;;3.45;;
78336;SDS011;67610;51.588;7.002;2023-04-25T05:22:41;11.82;;;3.60;;
78336;SDS011;67610;51.588;7.002;2023-04-25T05:25:07;12.50;;;3.53;;
78336;SDS011;67610;51.588;7.002;2023-04-25T05:27:33;7.25;;;3.20;;
78336;SDS011;67610;51.588;7.002;2023-04-25T05:29:59;7.13;;;3.40;;
78336;SDS011;67610;51.588;7.002;2023-04-25T05:32:24;9.48;;;3.38;;
78336;SDS011;67610;51.588;7.002;2023-04-25T05:34:50;7.63;;;3.70;;
78336;SDS011;67610;51.588;7.002;2023-04-25T05:37:16;8.82;;;3.60;;
78336;SDS011;67610;51.588;7.002;2023-04-25T05:39:42;9.85;;;3.70;;
78336;SDS011;67610;51.588;7.002;2023-04-25T05:42:09;9.00;;;3.70;;
78336;SDS011;67610;51.588;7.002;2023-04-25T05:44:34;10.35;;;3.30;;
78336;SDS011;67610;51.588;7.002;2023-04-25T05:47:00;8.10;;;3.80;;
78336;SDS011;67610;51.588;7.002;2023-04-25T05:49:25;10.63;;;3.45;;
78336;SDS011;67610;51.588;7.002;2023-04-25T05:51:50;9.10;;;3.30;;
78336;SDS011;67610;51.588;7.002;2023-04-25T05:54:16;9.43;;;3.63;;
78336;SDS011;67610;51.588;7.002;2023-04-25T05:56:41;12.02;;;3.60;;
78336;SDS011;67610;51.588;7.002;2023-04-25T05:59:07;8.48;;;3.58;;
78336;SDS011;67610;51.588;7.002;2023-04-25T06:01:32;7.97;;;3.50;;
78336;SDS011;67610;51.588;7.002;2023-04-25T06:03:57;9.45;;;3.55;;
78336;SDS011;67610;51.588;7.002;2023-04-25T06:06:23;8.30;;;3.60;;
78336;SDS011;67610;51.588;7.002;2023-04-25T06:08:49;10.60;;;3.13;;
78336;SDS011;67610;51.588;7.002;2023-04-25T06:11:14;8.73;;;3.00;;
78336;SDS011;67610;51.588;7.002;2023-04-25T06:13:41;8.52;;;3.85;;
78336;SDS011;67610;51.588;7.002;2023-04-25T06:16:06;9.20;;;3.50;;
78336;SDS011;67610;51.588;7.002;2023-04-25T06:18:32;10.32;;;3.70;;
78336;SDS011;67610;51.588;7.002;2023-04-25T06:20:59;7.88;;;3.30;;
78336;SDS011;67610;51.588;7.002;2023-04-25T06:23:25;9.85;;;3.20;;
78336;SDS011;67610;51.588;7.002;2023-04-25T06:25:50;8.60;;;3.28;;
78336;SDS011;67610;51.588;7.002;2023-04-25T06:28:16;8.40;;;3.40;;
78336;SDS011;67610;51.588;7.002;2023-04-25T06:30:41;9.82;;;3.15;;
78336;SDS011;67610;51.588;7.002;2023-04-25T06:33:07;10.52;;;3.40;;
78336;SDS011;67610;51.588;7.002;2023-04-25T06:35:33;10.43;;;3.08;;
78336;SDS011;67610;51.588;7.002;2023-04-25T06:37:59;8.73;;;2.92;;
78336;SDS011;67610;51.588;7.002;2023-04-25T06:40:24;6.78;;;3.03;;
78336;SDS011;67610;51.588;7.002;2023-04-25T06:42:50;7.60;;;2.60;;
78336;SDS011;67610;51.588;7.002;2023-04-25T06:45:15;4.03;;;2.00;;
78336;SDS011;67610;51.588;7.002;2023-04-25T06:47:42;5.10;;;2.25;;
78336;SDS011;67610;51.588;7.002;2023-04-25T06:50:10;4.82;;;1.90;;
78336;SDS011;67610;51.588;7.002;2023-04-25T06:52:39;5.57;;;2.10;;
78336;SDS011;67610;51.588;7.002;2023-04-25T06:55:04;4.47;;;2.25;;
78336;SDS011;67610;51.588;7.002;2023-04-25T06:57:30;5.72;;;1.88;;
78336;SDS011;67610;51.588;7.002;2023-04-25T06:59:56;4.47;;;2.15;;
78336;SDS011;67610;51.588;7.002;2023-04-25T07:02:21;8.02;;;2.80;;
78336;SDS011;67610;51.588;7.002;2023-04-25T07:04:47;5.30;;;2.10;;
78336;SDS011;67610;51.588;7.002;2023-04-25T07:07:13;6.03;;;2.08;;
78336;SDS011;67610;51.588;7.002;2023-04-25T07:09:38;5.32;;;1.90;;
78336;SDS011;67610;51.588;7.002;2023-04-25T07:12:05;6.13;;;2.30;;
78336;SDS011;67610;51.588;7.002;2023-04-25T07:14:30;4.35;;;2.03;;
78336;SDS011;67610;51.588;7.002;2023-04-25T07:16:56;5.10;;;2.00;;
78336;SDS011;67610;51.588;7.002;2023-04-25T07:19:22;5.40;;;2.00;;
78336;SDS011;67610;51.588;7.002;2023-04-25T07:21:52;5.80;;;2.00;;
78336;SDS011;67610;51.588;7.002;2023-04-25T07:24:22;4.93;;;1.80;;
78336;SDS011;67610;51.588;7.002;2023-04-25T07:26:48;5.07;;;2.03;;
78336;SDS011;67610;51.588;7.002;2023-04-25T07:29:13;10.07;;;2.28;;
78336;SDS011;67610;51.588;7.002;2023-04-25T07:31:39;5.47;;;2.20;;
78336;SDS011;67610;51.588;7.002;2023-04-25T07:34:05;7.40;;;2.30;;
78336;SDS011;67610;51.588;7.002;2023-04-25T07:36:31;7.65;;;2.45;;
78336;SDS011;67610;51.588;7.002;2023-04-25T07:38:56;4.15;;;1.90;;
78336;SDS011;67610;51.588;7.002;2023-04-25T07:41:22;6.88;;;2.50;;
78336;SDS011;67610;51.588;7.002;2023-04-25T07:43:47;7.50;;;2.40;;
78336;SDS011;67610;51.588;7.002;2023-04-25T07:46:12;4.95;;;2.10;;
78336;SDS011;67610;51.588;7.002;2023-04-25T07:48:38;4.90;;;2.30;;
78336;SDS011;67610;51.588;7.002;2023-04-25T07:51:03;5.35;;;2.50;;
78336;SDS011;67610;51.588;7.002;2023-04-25T07:53:30;7.68;;;2.28;;
78336;SDS011;67610;51.588;7.002;2023-04-25T07:55:57;4.80;;;2.20;;
78336;SDS011;67610;51.588;7.002;2023-04-25T07:58:22;6.63;;;2.08;;
78336;SDS011;67610;51.588;7.002;2023-04-25T08:00:48;5.70;;;2.08;;
78336;SDS011;67610;51.588;7.002;2023-04-25T08:03:14;9.57;;;3.00;;
78336;SDS011;67610;51.588;7.002;2023-04-25T08:05:40;8.13;;;2.00;;
78336;SDS011;67610;51.588;7.002;2023-04-25T08:08:05;4.95;;;2.08;;
78336;SDS011;67610;51.588;7.002;2023-04-25T08:10:32;9.20;;;2.67;;
78336;SDS011;67610;51.588;7.002;2023-04-25T08:12:59;6.75;;;2.25;;
78336;SDS011;67610;51.588;7.002;2023-04-25T08:15:24;6.07;;;2.00;;
78336;SDS011;67610;51.588;7.002;2023-04-25T08:17:50;4.40;;;2.20;;
78336;SDS011;67610;51.588;7.002;2023-04-25T08:20:16;4.88;;;1.90;;
78336;SDS011;67610;51.588;7.002;2023-04-25T08:22:42;7.72;;;2.17;;
78336;SDS011;67610;51.588;7.002;2023-04-25T08:25:08;7.28;;;2.30;;
78336;SDS011;67610;51.588;7.002;2023-04-25T08:27:33;7.45;;;2.45;;
78336;SDS011;67610;51.588;7.002;2023-04-25T08:30:02;4.72;;;2.03;;
78336;SDS011;67610;51.588;7.002;2023-04-25T08:32:28;5.78;;;2.03;;
78336;SDS011;67610;51.588;7.002;2023-04-25T08:34:54;6.65;;;2.10;;
78336;SDS011;67610;51.588;7.002;2023-04-25T08:37:20;7.72;;;2.20;;
78336;SDS011;67610;51.588;7.002;2023-04-25T08:39:46;6.20;;;2.10;;
78336;SDS011;67610;51.588;7.002;2023-04-25T08:42:13;5.43;;;2.10;;
78336;SDS011;67610;51.588;7.002;2023-04-25T08:44:40;6.03;;;2.05;;
78336;SDS011;67610;51.588;7.002;2023-04-25T08:47:06;7.28;;;2.17;;
78336;SDS011;67610;51.588;7.002;2023-04-25T08:49:32;6.28;;;2.05;;
78336;SDS011;67610;51.588;7.002;2023-04-25T08:52:03;5.43;;;1.83;;
78336;SDS011;67610;51.588;7.002;2023-04-25T08:54:30;6.22;;;2.20;;
78336;SDS011;67610;51.588;7.002;2023-04-25T08:56:57;7.43;;;2.45;;
78336;SDS011;67610;51.588;7.002;2023-04-25T08:59:29;6.63;;;2.22;;
78336;SDS011;67610;51.588;7.002;2023-04-25T09:01:56;4.82;;;2.10;;
78336;SDS011;67610;51.588;7.002;2023-04-25T09:04:22;4.95;;;2.15;;
78336;SDS011;67610;51.588;7.002;2023-04-25T09:06:47;5.68;;;1.90;;
78336;SDS011;67610;51.588;7.002;2023-04-25T09:09:13;7.25;;;2.20;;
78336;SDS011;67610;51.588;7.002;2023-04-25T09:11:39;6.07;;;2.33;;
78336;SDS011;67610;51.588;7.002;2023-04-25T09:16:57;6.72;;;2.40;;
78336;SDS011;67610;51.588;7.002;2023-04-25T09:19:41;5.38;;;2.40;;
78336;SDS011;67610;51.588;7.002;2023-04-25T09:22:06;5.55;;;2.00;;
78336;SDS011;67610;51.588;7.002;2023-04-25T09:24:33;7.30;;;2.03;;
78336;SDS011;67610;51.588;7.002;2023-04-25T09:27:00;5.13;;;2.03;;
78336;SDS011;67610;51.588;7.002;2023-04-25T09:29:29;3.58;;;1.52;;
78336;SDS011;67610;51.588;7.002;2023-04-25T09:34:44;5.30;;;1.90;;
78336;SDS011;67610;51.588;7.002;2023-04-25T09:39:54;5.95;;;2.05;;
78336;SDS011;67610;51.588;7.002;2023-04-25T09:42:24;7.00;;;1.88;;
78336;SDS011;67610;51.588;7.002;2023-04-25T09:44:52;3.72;;;1.50;;
78336;SDS011;67610;51.588;7.002;2023-04-25T09:47:19;3.38;;;1.70;;
78336;SDS011;67610;51.588;7.002;2023-04-25T09:52:13;3.97;;;1.63;;
78336;SDS011;67610;51.588;7.002;2023-04-25T09:54:41;5.97;;;2.10;;
78336;SDS011;67610;51.588;7.002;2023-04-25T09:57:10;3.42;;;1.90;;
78336;SDS011;67610;51.588;7.002;2023-04-25T09:59:39;4.45;;;1.80;;
78336;SDS011;67610;51.588;7.002;2023-04-25T10:02:09;3.72;;;1.83;;
78336;SDS011;67610;51.588;7.002;2023-04-25T10:04:36;5.70;;;1.80;;
78336;SDS011;67610;51.588;7.002;2023-04-25T10:07:03;5.13;;;1.80;;
78336;SDS011;67610;51.588;7.002;2023-04-25T10:09:30;4.50;;;1.67;;
78336;SDS011;67610;51.588;7.002;2023-04-25T10:11:59;5.57;;;1.88;;
78336;SDS011;67610;51.588;7.002;2023-04-25T10:14:25;6.45;;;1.85;;
78336;SDS011;67610;51.588;7.002;2023-04-25T10:16:51;5.50;;;1.70;;
78336;SDS011;67610;51.588;7.002;2023-04-25T10:19:19;6.78;;;1.90;;
78336;SDS011;67610;51.588;7.002;2023-04-25T10:21:51;6.22;;;1.90;;
78336;SDS011;67610;51.588;7.002;2023-04-25T10:24:19;4.38;;;1.83;;
78336;SDS011;67610;51.588;7.002;2023-04-25T10:26:45;3.50;;;1.58;;
78336;SDS011;67610;51.588;7.002;2023-04-25T10:29:12;5.97;;;2.05;;
78336;SDS011;67610;51.588;7.002;2023-04-25T10:31:46;5.05;;;2.00;;
78336;SDS011;67610;51.588;7.002;2023-04-25T10:36:37;3.95;;;1.88;;
78336;SDS011;67610;51.588;7.002;2023-04-25T10:39:04;7.72;;;2.15;;
78336;SDS011;67610;51.588;7.002;2023-04-25T10:41:47;5.53;;;1.73;;
78336;SDS011;67610;51.588;7.002;2023-04-25T10:44:19;5.90;;;2.10;;
78336;SDS011;67610;51.588;7.002;2023-04-25T10:46:45;6.60;;;2.45;;
78336;SDS011;67610;51.588;7.002;2023-04-25T10:49:28;7.00;;;2.50;;
78336;SDS011;67610;51.588;7.002;2023-04-25T10:52:12;4.65;;;1.75;;
78336;SDS011;67610;51.588;7.002;2023-04-25T10:59:59;6.38;;;2.45;;
78336;SDS011;67610;51.588;7.002;2023-04-25T11:02:26;5.53;;;1.80;;
78336;SDS011;67610;51.588;7.002;2023-04-25T11:04:53;4.20;;;1.70;;
78336;SDS011;67610;51.588;7.002;2023-04-25T11:10:06;3.13;;;1.70;;
78336;SDS011;67610;51.588;7.002;2023-04-25T11:12:32;3.80;;;1.35;;
78336;SDS011;67610;51.588;7.002;2023-04-25T11:14:58;4.13;;;1.48;;
78336;SDS011;67610;51.588;7.002;2023-04-25T11:17:28;4.05;;;1.60;;
78336;SDS011;67610;51.588;7.002;2023-04-25T11:19:54;4.93;;;1.80;;
78336;SDS011;67610;51.588;7.002;2023-04-25T11:22:21;4.07;;;1.50;;
78336;SDS011;67610;51.588;7.002;2023-04-25T11:24:47;6.88;;;1.80;;
78336;SDS011;67610;51.588;7.002;2023-04-25T11:27:12;5.97;;;1.60;;
78336;SDS011;67610;51.588;7.002;2023-04-25T11:29:38;3.42;;;1.58;;
78336;SDS011;67610;51.588;7.002;2023-04-25T11:32:05;2.75;;;1.40;;
78336;SDS011;67610;51.588;7.002;2023-04-25T11:34:31;5.97;;;1.58;;
78336;SDS011;67610;51.588;7.002;2023-04-25T11:36:58;3.00;;;2.00;;
78336;SDS011;67610;51.588;7.002;2023-04-25T11:39:25;2.13;;;1.27;;
78336;SDS011;67610;51.588;7.002;2023-04-25T11:41:51;3.00;;;1.58;;
78336;SDS011;67610;51.588;7.002;2023-04-25T11:44:17;3.25;;;1.30;;
78336;SDS011;67610;51.588;7.002;2023-04-25T11:46:43;2.28;;;1.30;;
78336;SDS011;67610;51.588;7.002;2023-04-25T11:49:09;2.55;;;1.10;;
78336;SDS011;67610;51.588;7.002;2023-04-25T11:51:41;2.95;;;1.40;;
78336;SDS011;67610;51.588;7.002;2023-04-25T11:54:08;2.78;;;1.45;;
78336;SDS011;67610;51.588;7.002;2023-04-25T11:56:34;3.00;;;1.35;;
78336;SDS011;67610;51.588;7.002;2023-04-25T11:59:00;3.47;;;1.50;;
78336;SDS011;67610;51.588;7.002;2023-04-25T12:03:52;2.42;;;1.70;;
78336;SDS011;67610;51.588;7.002;2023-04-25T12:06:17;3.63;;;1.30;;
78336;SDS011;67610;51.588;7.002;2023-04-25T12:08:59;5.10;;;1.45;;
78336;SDS011;67610;51.588;7.002;2023-04-25T12:11:25;2.60;;;1.50;;
78336;SDS011;67610;51.588;7.002;2023-04-25T12:13:51;4.88;;;1.63;;
78336;SDS011;67610;51.588;7.002;2023-04-25T12:16:19;3.80;;;1.60;;
78336;SDS011;67610;51.588;7.002;2023-04-25T12:18:44;2.40;;;1.30;;
78336;SDS011;67610;51.588;7.002;2023-04-25T12:21:09;3.97;;;1.50;;
78336;SDS011;67610;51.588;7.002;2023-04-25T12:23:35;2.67;;;1.33;;
78336;SDS011;67610;51.588;7.002;2023-04-25T12:26:04;3.00;;;1.45;;
78336;SDS011;67610;51.588;7.002;2023-04-25T12:28:31;2.70;;;1.50;;
78336;SDS011;67610;51.588;7.002;2023-04-25T12:31:05;4.40;;;1.58;;
78336;SDS011;67610;51.588;7.002;2023-04-25T12:33:32;3.78;;;1.48;;
78336;SDS011;67610;51.588;7.002;2023-04-25T12:35:58;3.13;;;1.40;;
78336;SDS011;67610;51.588;7.002;2023-04-25T12:38:28;2.40;;;1.30;;
78336;SDS011;67610;51.588;7.002;2023-04-25T12:41:00;1.95;;;1.30;;
78336;SDS011;67610;51.588;7.002;2023-04-25T12:43:26;3.90;;;1.58;;
78336;SDS011;67610;51.588;7.002;2023-04-25T12:45:52;3.25;;;1.60;;
78336;SDS011;67610;51.588;7.002;2023-04-25T12:48:19;2.67;;;1.30;;
78336;SDS011;67610;51.588;7.002;2023-04-25T12:50:45;2.40;;;1.40;;
78336;SDS011;67610;51.588;7.002;2023-04-25T12:53:13;4.40;;;1.60;;
78336;SDS011;67610;51.588;7.002;2023-04-25T12:55:39;3.65;;;1.50;;
78336;SDS011;67610;51.588;7.002;2023-04-25T12:58:05;3.47;;;1.50;;
78336;SDS011;67610;51.588;7.002;2023-04-25T13:00:31;1.77;;;1.25;;
78336;SDS011;67610;51.588;7.002;2023-04-25T13:02:56;3.38;;;1.50;;
78336;SDS011;67610;51.588;7.002;2023-04-25T13:05:22;3.20;;;1.60;;
78336;SDS011;67610;51.588;7.002;2023-04-25T13:07:52;3.33;;;1.50;;
78336;SDS011;67610;51.588;7.002;2023-04-25T13:10:17;4.53;;;1.60;;
78336;SDS011;67610;51.588;7.002;2023-04-25T13:12:43;4.05;;;1.52;;
78336;SDS011;67610;51.588;7.002;2023-04-25T13:15:09;5.82;;;1.50;;
78336;SDS011;67610;51.588;7.002;2023-04-25T13:17:37;6.30;;;1.80;;
78336;SDS011;67610;51.588;7.002;2023-04-25T13:20:04;4.97;;;1.70;;
78336;SDS011;67610;51.588;7.002;2023-04-25T13:22:33;5.25;;;1.75;;
78336;SDS011;67610;51.588;7.002;2023-04-25T13:25:01;4.18;;;1.60;;
78336;SDS011;67610;51.588;7.002;2023-04-25T13:27:27;4.75;;;1.42;;
78336;SDS011;67610;51.588;7.002;2023-04-25T13:29:52;3.03;;;1.90;;
78336;SDS011;67610;51.588;7.002;2023-04-25T13:32:18;2.90;;;1.60;;
78336;SDS011;67610;51.588;7.002;2023-04-25T13:34:43;4.00;;;1.50;;
78336;SDS011;67610;51.588;7.002;2023-04-25T13:37:08;3.60;;;1.42;;
78336;SDS011;67610;51.588;7.002;2023-04-25T13:39:34;3.97;;;1.52;;
78336;SDS011;67610;51.588;7.002;2023-04-25T13:41:59;4.32;;;1.70;;
78336;SDS011;67610;51.588;7.002;2023-04-25T13:44:25;2.88;;;1.40;;
78336;SDS011;67610;51.588;7.002;2023-04-25T13:46:50;4.18;;;1.70;;
78336;SDS011;67610;51.588;7.002;2023-04-25T13:49:16;3.88;;;1.65;;
78336;SDS011;67610;51.588;7.002;2023-04-25T13:51:41;3.45;;;1.70;;
78336;SDS011;67610;51.588;7.002;2023-04-25T13:54:07;2.70;;;1.60;;
78336;SDS011;67610;51.588;7.002;2023-04-25T13:56:32;3.10;;;1.35;;
78336;SDS011;67610;51.588;7.002;2023-04-25T13:58:58;3.28;;;1.38;;
78336;SDS011;67610;51.588;7.002;2023-04-25T14:01:23;1.85;;;1.30;;
78336;SDS011;67610;51.588;7.002;2023-04-25T14:03:48;2.35;;;1.23;;
78336;SDS011;67610;51.588;7.002;2023-04-25T14:06:14;2.85;;;1.33;;
78336;SDS011;67610;51.588;7.002;2023-04-25T14:08:42;1.48;;;1.00;;
78336;SDS011;67610;51.588;7.002;2023-04-25T14:11:07;2.35;;;1.20;;
78336;SDS011;67610;51.588;7.002;2023-04-25T14:13:32;1.65;;;1.25;;
78336;SDS011;67610;51.588;7.002;2023-04-25T14:15:58;3.25;;;1.35;;
78336;SDS011;67610;51.588;7.002;2023-04-25T14:18:23;1.90;;;1.30;;
78336;SDS011;67610;51.588;7.002;2023-04-25T14:20:49;2.47;;;1.83;;
78336;SDS011;67610;51.588;7.002;2023-04-25T14:23:14;2.67;;;1.30;;
78336;SDS011;67610;51.588;7.002;2023-04-25T14:25:41;4.78;;;1.60;;
78336;SDS011;67610;51.588;7.002;2023-04-25T14:28:07;3.78;;;1.50;;
78336;SDS011;67610;51.588;7.002;2023-04-25T14:30:32;2.42;;;1.40;;
78336;SDS011;67610;51.588;7.002;2023-04-25T14:32:59;3.33;;;1.50;;
78336;SDS011;67610;51.588;7.002;2023-04-25T14:35:25;3.22;;;1.67;;
78336;SDS011;67610;51.588;7.002;2023-04-25T14:37:50;3.85;;;1.60;;
78336;SDS011;67610;51.588;7.002;2023-04-25T14:40:15;3.38;;;1.55;;
78336;SDS011;67610;51.588;7.002;2023-04-25T14:42:42;2.70;;;1.50;;
78336;SDS011;67610;51.588;7.002;2023-04-25T14:45:07;3.72;;;1.42;;
78336;SDS011;67610;51.588;7.002;2023-04-25T14:47:35;3.95;;;1.70;;
78336;SDS011;67610;51.588;7.002;2023-04-25T14:50:01;3.08;;;1.50;;
78336;SDS011;67610;51.588;7.002;2023-04-25T14:52:27;4.25;;;1.50;;
78336;SDS011;67610;51.588;7.002;2023-04-25T14:54:52;5.82;;;1.60;;
78336;SDS011;67610;51.588;7.002;2023-04-25T14:57:18;3.55;;;1.77;;
78336;SDS011;67610;51.588;7.002;2023-04-25T14:59:44;2.28;;;1.40;;
78336;SDS011;67610;51.588;7.002;2023-04-25T15:02:10;3.42;;;1.50;;
78336;SDS011;67610;51.588;7.002;2023-04-25T15:04:36;4.45;;;1.40;;